Time;durP1;ratioP1;P1;durP2;ratioP2;P2;SDS_P1;SDS_P2;PMS_P1;PMS_P2;Temp;Humidity;BMP_temperature;BMP_pressure;BME280_temperature;BME280_humidity;BME280_pressure;Samples;Min_cycle;Max_cycle;Signal;HPM_P1;HPM_P2
2021/12/22 00:01:25;;;;;;;23.13;8.95;;;;;;;-1.60;95.00;101288.81;714492;1177;114189;-75
2021/12/22 00:16:27;;;;;;;36.63;11.48;;;;;;;-1.58;94.63;101302.51;714289;1177;114042;-75
2021/12/22 00:31:30;;;;;;;23.33;8.53;;;;;;;-1.68;94.25;101304.44;714247;1200;114287;-74
2021/12/22 00:46:33;;;;;;;43.60;15.40;;;;;;;-1.67;94.83;101315.57;714459;1202;115913;-76
2021/12/22 01:01:35;;;;;;;80.92;28.58;;;;;;;-1.64;94.55;101315.50;714251;1199;114408;-76
2021/12/22 01:16:38;;;;;;;78.20;29.35;;;;;;;-1.61;95.57;101320.60;713931;1199;114191;-76
2021/12/22 01:31:42;;;;;;;19.85;7.40;;;;;;;-1.48;95.09;101320.33;713843;1199;115632;-76
2021/12/22 02:02:22;;;;;;;16.15;7.50;;;;;;;-1.44;95.37;101327.10;713975;1199;114272;-74
2021/12/22 02:17:27;;;;;;;19.60;8.83;;;;;;;-1.27;96.09;101337.88;713713;1179;114300;-74
2021/12/22 02:47:42;;;;;;;18.17;7.97;;;;;;;-1.30;94.48;101348.25;713703;1178;115037;-75
2021/12/22 03:02:59;;;;;;;25.23;8.83;;;;;;;-1.62;95.21;101343.77;713691;1199;114192;-75
2021/12/22 03:18:03;;;;;;;38.53;13.98;;;;;;;-1.61;94.88;101342.89;713670;1178;116245;-75
2021/12/22 03:33:05;;;;;;;33.15;13.50;;;;;;;-1.49;94.94;101345.23;713787;1176;114298;-75
2021/12/22 03:48:08;;;;;;;19.57;8.17;;;;;;;-1.43;94.57;101357.13;714198;1176;115367;-75
2021/12/22 04:03:16;;;;;;;14.70;7.10;;;;;;;-1.47;93.70;101356.33;714122;1203;114898;-77
2021/12/22 04:18:19;;;;;;;19.50;7.93;;;;;;;-1.42;93.14;101362.23;715544;1200;115568;-74
2021/12/22 04:33:22;;;;;;;31.75;13.13;;;;;;;-1.71;93.15;101368.81;714418;1177;114041;-74
2021/12/22 04:48:24;;;;;;;13.47;6.93;;;;;;;-1.68;93.23;101378.20;714533;1200;113779;-74
2021/12/22 05:03:27;;;;;;;28.75;14.55;;;;;;;-1.67;92.96;101364.46;715354;1199;115305;-75
2021/12/22 05:33:57;;;;;;;23.33;8.45;;;;;;;-2.04;93.42;101396.03;714112;1199;114537;-74
2021/12/22 05:49:00;;;;;;;112.88;34.20;;;;;;;-1.85;92.99;101402.54;714044;1174;113969;-75
2021/12/22 06:04:03;;;;;;;41.53;13.57;;;;;;;-2.01;92.14;101429.39;714055;1189;114920;-76
2021/12/22 06:19:09;;;;;;;54.33;16.80;;;;;;;-1.99;92.19;101453.38;714008;1199;115170;-75
2021/12/22 06:34:11;;;;;;;118.93;30.73;;;;;;;-1.81;91.46;101490.78;714387;1189;115075;-74
2021/12/22 06:49:13;;;;;;;47.00;18.33;;;;;;;-1.96;90.77;101486.75;714178;1200;114486;-76
2021/12/22 07:04:16;;;;;;;39.07;13.33;;;;;;;-1.87;90.69;101493.48;714238;1200;116367;-75
2021/12/22 07:19:18;;;;;;;40.17;18.80;;;;;;;-1.71;91.18;101496.63;714451;1202;114925;-72
2021/12/22 07:34:28;;;;;;;31.90;13.93;;;;;;;-1.65;90.68;101509.41;714814;1200;115020;-74
2021/12/22 07:49:30;;;;;;;64.00;24.20;;;;;;;-1.46;91.48;101514.22;715231;1200;114785;-74
2021/12/22 08:04:32;;;;;;;58.97;26.60;;;;;;;-1.64;90.69;101517.95;715187;1199;115484;-73
2021/12/22 08:19:35;;;;;;;50.50;19.50;;;;;;;-1.46;90.88;101527.09;718390;1199;114353;-79
2021/12/22 08:34:40;;;;;;;149.30;60.37;;;;;;;-1.54;91.08;101537.52;720157;1178;114320;-78
2021/12/22 08:49:43;;;;;;;62.43;23.55;;;;;;;-1.20;91.53;101544.60;716324;1176;114602;-80
2021/12/22 09:04:45;;;;;;;62.80;23.87;;;;;;;-1.31;91.84;101552.53;715374;1176;114360;-78
2021/12/22 09:19:52;;;;;;;43.55;17.20;;;;;;;-1.11;91.31;101551.32;715092;1177;115212;-78
2021/12/22 09:34:54;;;;;;;19.63;9.33;;;;;;;-0.73;91.04;101539.41;714368;1177;114457;-78
2021/12/22 09:50:09;;;;;;;53.83;34.13;;;;;;;-0.67;90.84;101534.97;714639;1199;114709;-77
2021/12/22 10:05:11;;;;;;;117.38;42.75;;;;;;;-0.41;90.45;101527.54;718078;1199;114964;-77
2021/12/22 10:20:17;;;;;;;76.03;30.63;;;;;;;0.01;89.17;101526.59;718576;1199;115477;-72
2021/12/22 10:35:32;;;;;;;56.37;23.47;;;;;;;0.25;88.94;101525.13;715435;1199;115432;-74
2021/12/22 10:50:35;;;;;;;76.63;27.23;;;;;;;0.52;89.04;101522.74;715520;1199;115529;-74
2021/12/22 11:05:46;;;;;;;28.87;14.13;;;;;;;0.43;87.84;101516.91;716509;1199;115270;-74
2021/12/22 11:21:29;;;;;;;47.03;19.83;;;;;;;0.40;87.31;101509.25;715200;1199;114441;-75
2021/12/22 11:36:32;;;;;;;75.80;30.60;;;;;;;1.10;88.79;101500.45;715249;1174;114131;-73
2021/12/22 11:51:34;;;;;;;32.58;16.35;;;;;;;1.48;85.88;101501.05;714875;1200;115139;-74
2021/12/22 12:06:51;;;;;;;39.20;16.10;;;;;;;1.23;85.26;101505.25;714838;1174;113992;-74
2021/12/22 12:22:08;;;;;;;31.35;14.00;;;;;;;0.69;84.99;101499.89;715028;1200;113987;-74
2021/12/22 12:37:11;;;;;;;26.20;13.05;;;;;;;0.29;84.01;101499.21;714679;1199;115503;-75
2021/12/22 12:52:20;;;;;;;80.50;32.88;;;;;;;0.68;84.72;101502.52;715080;1199;114792;-73
2021/12/22 13:07:23;;;;;;;82.75;28.33;;;;;;;0.66;84.59;101505.14;715044;1199;114536;-75
2021/12/22 13:22:32;;;;;;;148.45;39.65;;;;;;;0.43;84.63;101504.00;715313;1190;114794;-75
2021/12/22 13:37:49;;;;;;;483.83;120.53;;;;;;;0.07;84.17;101498.06;714871;1199;115607;-75
2021/12/22 13:52:52;;;;;;;158.17;52.87;;;;;;;-0.38;83.25;101492.23;715185;1199;116075;-71
2021/12/22 14:07:55;;;;;;;58.27;27.60;;;;;;;-0.86;84.21;101493.28;714359;1200;114747;-73
2021/12/22 14:23:01;;;;;;;264.05;99.45;;;;;;;-1.18;84.07;101502.49;714223;1202;116007;-74
2021/12/22 14:38:10;;;;;;;220.93;78.73;;;;;;;-1.69;83.28;101500.02;714646;1199;114991;-75
2021/12/22 14:53:37;;;;;;;74.07;28.17;;;;;;;-1.93;84.37;101496.98;714812;1202;115072;-74
2021/12/22 15:08:39;;;;;;;54.65;23.05;;;;;;;-2.05;84.34;101479.19;714027;1200;115101;-73
2021/12/22 15:23:42;;;;;;;54.70;20.75;;;;;;;-2.06;84.52;101485.20;714097;1177;114263;-74
2021/12/22 15:38:46;;;;;;;52.40;21.73;;;;;;;-2.06;84.78;101474.91;714906;1178;114831;-74
2021/12/22 15:53:48;;;;;;;51.28;22.23;;;;;;;-2.01;84.53;101468.84;714345;1176;114662;-72
2021/12/22 16:08:51;;;;;;;53.25;20.40;;;;;;;-2.09;84.65;101474.97;714483;1199;115037;-72
2021/12/22 16:23:57;;;;;;;63.75;26.35;;;;;;;-2.19;84.83;101451.98;714804;1200;115984;-72
2021/12/22 16:39:00;;;;;;;181.85;59.93;;;;;;;-1.97;85.86;101454.19;714585;1199;115215;-71
2021/12/22 16:54:03;;;;;;;68.40;26.93;;;;;;;-1.90;85.63;101445.50;714430;1198;115535;-70
2021/12/22 17:09:06;;;;;;;133.93;41.88;;;;;;;-1.92;85.73;101431.80;714226;1199;115770;-70
2021/12/22 17:24:09;;;;;;;309.95;90.40;;;;;;;-1.73;86.33;101441.77;714437;1200;114804;-70
2021/12/22 17:39:13;;;;;;;177.93;57.33;;;;;;;-1.68;85.12;101424.52;714538;1174;114476;-72
2021/12/22 17:54:16;;;;;;;82.97;32.50;;;;;;;-1.71;85.49;101419.44;714511;1200;114970;-71
2021/12/22 18:09:19;;;;;;;170.25;57.50;;;;;;;-1.66;86.60;101409.91;714136;1176;114761;-73
2021/12/22 18:24:22;;;;;;;106.33;40.75;;;;;;;-1.66;87.23;101394.47;714606;1203;114036;-74
2021/12/22 18:39:28;;;;;;;121.98;44.53;;;;;;;-1.65;87.48;101374.72;715166;1188;114374;-74
2021/12/22 18:54:32;;;;;;;132.50;44.95;;;;;;;-1.48;87.90;101367.50;715646;1177;115443;-73
2021/12/22 19:09:35;;;;;;;82.10;31.60;;;;;;;-1.43;88.63;101362.27;714846;1199;114887;-73
2021/12/22 19:24:39;;;;;;;82.78;33.63;;;;;;;-1.41;89.27;101365.64;714781;1177;114540;-72
2021/12/22 19:39:42;;;;;;;69.67;28.33;;;;;;;-1.37;89.92;101354.42;714976;1174;114811;-71
2021/12/22 19:54:45;;;;;;;73.75;30.88;;;;;;;-1.40;90.39;101336.45;714928;1199;115304;-69
2021/12/22 20:09:54;;;;;;;85.50;33.98;;;;;;;-1.37;91.03;101321.80;715371;1200;115065;-70
2021/12/22 20:24:57;;;;;;;80.50;31.45;;;;;;;-1.35;93.28;101325.20;714960;1177;114463;-70
2021/12/22 20:40:00;;;;;;;83.38;31.90;;;;;;;-1.29;92.54;101323.34;714454;1200;115589;-70
2021/12/22 20:55:07;;;;;;;74.08;29.73;;;;;;;-1.24;93.12;101300.91;715408;1175;114923;-71
2021/12/22 21:10:13;;;;;;;87.53;29.73;;;;;;;-1.17;93.71;101293.02;715249;1179;114320;-71
2021/12/22 21:25:17;;;;;;;94.93;32.43;;;;;;;-1.13;94.42;101293.80;715017;1177;114536;-70
2021/12/22 21:40:21;;;;;;;81.03;30.93;;;;;;;-1.21;95.06;101270.80;714788;1202;114827;-70
2021/12/22 21:55:24;;;;;;;94.38;31.90;;;;;;;-1.19;95.61;101252.73;714873;1175;114330;-71
2021/12/22 22:10:27;;;;;;;73.43;29.03;;;;;;;-1.27;96.48;101240.03;715271;1200;114871;-73
2021/12/22 22:25:29;;;;;;;74.88;26.35;;;;;;;-1.40;97.58;101218.03;714612;1204;114552;-75
2021/12/22 22:40:32;;;;;;;71.73;27.27;;;;;;;-1.42;98.44;101214.66;714389;1177;114308;-75
2021/12/22 22:55:34;;;;;;;72.00;26.30;;;;;;;-1.49;99.28;101198.52;714625;1200;114845;-73
2021/12/22 23:10:36;;;;;;;66.65;24.75;;;;;;;-1.46;100.00;101187.30;714377;1203;115991;-74
2021/12/22 23:25:39;;;;;;;56.83;24.30;;;;;;;-1.46;100.00;101171.86;714319;1201;116206;-73
2021/12/22 23:55:44;;;;;;;66.37;26.17;;;;;;;-1.52;100.00;101124.80;714135;1178;114724;-75
